Time;durP1;ratioP1;P1;durP2;ratioP2;P2;SDS_P1;SDS_P2;PMS_P1;PMS_P2;Temp;Humidity;BMP_temperature;BMP_pressure;BME280_temperature;BME280_humidity;BME280_pressure;Samples;Min_cycle;Max_cycle;Signal;HPM_P1;HPM_P2
2023/07/17 00:00:37;;;;;;;13.45;3.85;;;16.00;99.90;;;;;;5137015;27;20943;-40
2023/07/17 00:03:04;;;;;;;16.33;4.47;;;16.10;99.90;;;;;;5136568;27;20051;-39
2023/07/17 00:05:30;;;;;;;9.38;3.53;;;16.20;99.90;;;;;;5133519;27;20042;-40
2023/07/17 00:07:55;;;;;;;9.95;3.47;;;16.20;99.90;;;;;;5116129;27;20047;-40
2023/07/17 00:10:21;;;;;;;11.32;3.83;;;16.20;99.90;;;;;;5116465;27;20053;-40
2023/07/17 00:12:47;;;;;;;9.57;3.22;;;16.20;99.90;;;;;;5097432;27;20082;-39
2023/07/17 00:15:12;;;;;;;9.20;3.42;;;16.10;99.90;;;;;;5097647;27;20055;-39
2023/07/17 00:17:38;;;;;;;8.15;3.28;;;16.00;99.90;;;;;;5115241;27;20058;-40
2023/07/17 00:20:10;;;;;;;7.10;3.05;;;16.00;99.90;;;;;;5118289;27;20865;-40
2023/07/17 00:22:36;;;;;;;11.02;3.92;;;15.90;99.90;;;;;;5135871;27;20058;-40
2023/07/17 00:25:04;;;;;;;9.45;3.30;;;15.90;99.90;;;;;;5135952;27;20121;-40
2023/07/17 00:27:30;;;;;;;9.85;3.40;;;15.80;99.90;;;;;;5136114;27;20082;-39
2023/07/17 00:29:56;;;;;;;8.13;3.70;;;15.80;99.90;;;;;;5136057;27;20039;-40
2023/07/17 00:32:22;;;;;;;7.43;3.28;;;15.70;99.90;;;;;;5117491;27;20045;-40
2023/07/17 00:34:47;;;;;;;10.27;3.50;;;15.70;99.90;;;;;;5121882;27;20052;-40
2023/07/17 00:37:13;;;;;;;9.45;4.30;;;15.70;99.90;;;;;;5114079;27;20145;-40
2023/07/17 00:39:39;;;;;;;8.10;3.20;;;15.70;99.90;;;;;;5129338;27;20130;-39
2023/07/17 00:42:05;;;;;;;9.23;3.58;;;15.60;99.90;;;;;;5125456;27;20131;-40
2023/07/17 00:44:30;;;;;;;6.72;2.55;;;15.60;99.90;;;;;;5082224;27;20063;-39
2023/07/17 00:46:57;;;;;;;9.50;3.15;;;15.60;99.90;;;;;;5114734;27;20096;-39
2023/07/17 00:49:24;;;;;;;7.50;3.17;;;15.60;99.90;;;;;;5115501;27;20720;-39
2023/07/17 00:51:51;;;;;;;9.70;4.15;;;15.50;99.90;;;;;;5096454;27;20592;-39
2023/07/17 00:54:19;;;;;;;10.40;3.15;;;15.50;99.90;;;;;;5114849;27;20043;-39
2023/07/17 00:56:46;;;;;;;7.47;3.08;;;15.50;99.90;;;;;;5114518;27;20591;-40
2023/07/17 00:59:16;;;;;;;8.52;3.65;;;15.40;99.90;;;;;;5115388;27;20253;-40
2023/07/17 01:01:42;;;;;;;9.82;3.63;;;15.40;99.90;;;;;;5114318;27;20055;-39
2023/07/17 01:04:08;;;;;;;11.63;3.22;;;15.40;99.90;;;;;;5115138;27;20047;-41
2023/07/17 01:06:38;;;;;;;6.75;3.42;;;15.40;99.90;;;;;;5115403;27;20049;-39
2023/07/17 01:09:07;;;;;;;11.88;4.25;;;15.30;99.90;;;;;;5114657;27;20055;-40
2023/07/17 01:11:34;;;;;;;12.48;4.32;;;15.30;99.90;;;;;;5096144;27;20090;-40
2023/07/17 01:13:59;;;;;;;11.55;3.92;;;15.30;99.90;;;;;;5115429;27;20085;-44
2023/07/17 01:16:25;;;;;;;10.30;3.90;;;15.20;99.90;;;;;;5115056;27;20126;-40
2023/07/17 01:18:51;;;;;;;13.55;3.97;;;15.20;99.90;;;;;;5115324;27;20051;-39
2023/07/17 01:21:20;;;;;;;13.52;4.40;;;15.10;99.90;;;;;;5115494;27;20047;-40
2023/07/17 01:23:45;;;;;;;12.15;4.40;;;15.10;99.90;;;;;;5096054;28;20100;-39
2023/07/17 01:26:15;;;;;;;10.27;4.03;;;15.10;99.90;;;;;;5115754;27;20039;-40
2023/07/17 01:28:42;;;;;;;13.77;4.68;;;15.10;99.90;;;;;;5114844;27;20047;-39
2023/07/17 01:31:08;;;;;;;14.02;4.30;;;15.10;99.90;;;;;;5119337;27;20046;-39
2023/07/17 01:33:34;;;;;;;11.15;4.75;;;15.00;99.90;;;;;;5091028;27;20441;-40
2023/07/17 01:36:02;;;;;;;14.93;5.07;;;15.00;99.90;;;;;;5114844;27;20054;-39
2023/07/17 01:38:28;;;;;;;13.50;5.03;;;14.90;99.90;;;;;;5122794;27;20050;-39
2023/07/17 01:40:53;;;;;;;11.70;4.60;;;14.90;99.90;;;;;;5122111;27;20058;-39
2023/07/17 01:43:19;;;;;;;12.13;4.63;;;14.90;99.90;;;;;;5125996;27;20299;-39
2023/07/17 01:45:44;;;;;;;10.52;3.95;;;14.90;99.90;;;;;;5112154;27;20889;-39
2023/07/17 01:48:10;;;;;;;16.45;4.97;;;14.90;99.90;;;;;;5117854;27;20130;-39
2023/07/17 01:50:36;;;;;;;12.07;4.20;;;14.90;99.90;;;;;;5118527;27;20513;-40
2023/07/17 01:53:01;;;;;;;8.98;4.13;;;14.80;99.90;;;;;;5118474;27;20106;-39
2023/07/17 01:55:27;;;;;;;12.63;4.45;;;14.80;99.90;;;;;;5118394;27;20432;-39
2023/07/17 01:57:57;;;;;;;16.65;4.85;;;14.90;99.90;;;;;;5118008;27;20107;-39
2023/07/17 02:00:23;;;;;;;9.13;4.15;;;14.80;99.90;;;;;;5097483;27;20043;-39
2023/07/17 02:02:49;;;;;;;10.98;5.18;;;14.90;99.90;;;;;;5097983;27;20065;-39
2023/07/17 02:05:15;;;;;;;13.40;4.22;;;14.90;99.90;;;;;;5117033;27;20795;-39
2023/07/17 02:07:40;;;;;;;7.28;3.85;;;14.90;99.90;;;;;;5117707;27;20053;-39
2023/07/17 02:10:07;;;;;;;11.38;3.90;;;14.80;99.90;;;;;;5118285;27;20031;-39
2023/07/17 02:12:33;;;;;;;12.23;4.15;;;14.80;99.90;;;;;;5118035;27;20047;-39
2023/07/17 02:14:58;;;;;;;11.63;4.70;;;14.90;99.90;;;;;;5119231;27;20058;-39
2023/07/17 02:17:24;;;;;;;9.05;3.83;;;14.90;99.90;;;;;;5118798;27;20043;-39
2023/07/17 02:19:50;;;;;;;11.02;3.72;;;14.80;99.90;;;;;;5100188;27;20591;-40
2023/07/17 02:22:15;;;;;;;9.73;4.13;;;14.90;99.90;;;;;;5100069;27;20494;-40
2023/07/17 02:24:41;;;;;;;12.13;4.20;;;14.80;99.90;;;;;;5118076;27;20128;-40
2023/07/17 02:27:07;;;;;;;9.48;4.63;;;14.80;99.90;;;;;;5117421;27;20298;-39
2023/07/17 02:29:33;;;;;;;8.50;4.13;;;14.80;99.90;;;;;;5118071;27;20047;-39
2023/07/17 02:31:58;;;;;;;13.43;5.32;;;14.70;99.90;;;;;;5118019;27;20394;-39
2023/07/17 02:34:24;;;;;;;12.30;4.50;;;14.70;99.90;;;;;;5115746;27;20786;-39
2023/07/17 02:36:53;;;;;;;8.73;4.07;;;14.80;99.90;;;;;;5114177;27;20057;-39
2023/07/17 02:39:20;;;;;;;12.23;4.15;;;14.80;99.90;;;;;;5129746;27;20050;-39
2023/07/17 02:41:46;;;;;;;12.35;5.28;;;14.80;99.90;;;;;;5137843;27;20120;-39
2023/07/17 02:44:13;;;;;;;10.02;4.32;;;14.80;99.90;;;;;;5075490;27;20120;-39
2023/07/17 02:46:39;;;;;;;11.93;4.35;;;14.80;99.90;;;;;;5125061;27;20404;-40
2023/07/17 02:49:07;;;;;;;12.50;4.35;;;14.80;99.90;;;;;;5120158;27;20049;-39
2023/07/17 02:51:32;;;;;;;11.88;4.07;;;14.80;99.90;;;;;;5137450;27;20111;-40
2023/07/17 02:53:58;;;;;;;12.85;3.70;;;14.90;99.90;;;;;;5123683;27;20039;-39
2023/07/17 02:56:24;;;;;;;10.63;3.75;;;14.90;99.90;;;;;;5117423;27;20329;-40
2023/07/17 02:58:53;;;;;;;9.52;4.55;;;14.90;99.90;;;;;;5098172;27;20055;-39
2023/07/17 03:01:20;;;;;;;12.88;4.80;;;14.90;99.90;;;;;;5116588;27;20046;-39
2023/07/17 03:03:46;;;;;;;9.35;4.78;;;14.90;99.90;;;;;;5116992;27;20607;-40
2023/07/17 03:06:12;;;;;;;9.90;4.75;;;14.90;99.90;;;;;;5117577;27;20073;-40
2023/07/17 03:08:38;;;;;;;12.50;4.53;;;14.90;99.90;;;;;;5116301;27;20473;-39
2023/07/17 03:11:04;;;;;;;13.10;4.47;;;14.80;99.90;;;;;;5117362;27;20047;-39
2023/07/17 03:13:30;;;;;;;15.90;4.60;;;14.80;99.90;;;;;;5116697;27;20053;-39
2023/07/17 03:15:58;;;;;;;12.10;5.03;;;14.80;99.90;;;;;;5117957;27;20147;-39
2023/07/17 03:18:25;;;;;;;14.30;4.35;;;14.80;99.90;;;;;;5116942;27;20047;-39
2023/07/17 03:20:51;;;;;;;11.48;4.45;;;14.70;99.90;;;;;;5099498;27;20055;-39
2023/07/17 03:23:17;;;;;;;14.25;4.32;;;14.70;99.90;;;;;;5116641;27;20055;-39
2023/07/17 03:25:43;;;;;;;15.80;4.88;;;14.60;99.90;;;;;;5117505;27;20046;-40
2023/07/17 03:28:09;;;;;;;15.23;5.25;;;14.60;99.90;;;;;;5114425;27;20171;-39
2023/07/17 03:30:35;;;;;;;13.43;4.43;;;14.50;99.90;;;;;;5137951;27;20130;-39
2023/07/17 03:33:01;;;;;;;15.00;4.75;;;14.50;99.90;;;;;;5136712;27;20039;-39
2023/07/17 03:35:27;;;;;;;12.55;4.43;;;14.50;99.90;;;;;;5117582;27;20552;-39
2023/07/17 03:37:53;;;;;;;13.45;5.13;;;14.40;99.90;;;;;;5113280;27;20573;-39
2023/07/17 03:40:18;;;;;;;11.75;4.50;;;14.40;99.90;;;;;;5116527;27;20051;-39
2023/07/17 03:42:44;;;;;;;16.95;4.95;;;14.40;99.90;;;;;;5113548;27;20371;-39
2023/07/17 03:45:10;;;;;;;15.05;5.43;;;14.40;99.90;;;;;;5114477;27;20054;-39
2023/07/17 03:47:36;;;;;;;15.15;4.95;;;14.40;99.90;;;;;;5136909;27;20116;-39
2023/07/17 03:50:02;;;;;;;12.38;5.07;;;14.40;99.90;;;;;;5137928;27;20039;-39
2023/07/17 03:52:27;;;;;;;20.48;6.25;;;14.30;99.90;;;;;;5118071;27;20592;-39
2023/07/17 03:54:53;;;;;;;15.82;5.68;;;14.30;99.90;;;;;;5137655;27;20094;-39
2023/07/17 03:57:19;;;;;;;14.50;5.05;;;14.30;99.90;;;;;;5136349;27;20099;-39
2023/07/17 03:59:50;;;;;;;17.42;5.60;;;14.30;99.90;;;;;;5137057;27;20659;-39
2023/07/17 04:02:16;;;;;;;11.20;4.53;;;14.30;99.90;;;;;;5104758;27;20055;-39
2023/07/17 04:04:41;;;;;;;20.45;6.35;;;14.30;99.90;;;;;;5114888;27;20043;-39
2023/07/17 04:07:07;;;;;;;13.18;5.45;;;14.40;99.90;;;;;;5095352;27;20047;-40
2023/07/17 04:09:33;;;;;;;12.27;5.00;;;14.50;99.90;;;;;;5115775;27;20601;-39
2023/07/17 04:11:58;;;;;;;11.43;4.97;;;14.70;99.90;;;;;;5116031;27;20054;-39
2023/07/17 04:14:24;;;;;;;12.48;5.38;;;14.80;99.90;;;;;;5116750;27;20077;-40
2023/07/17 04:16:50;;;;;;;15.48;5.38;;;14.90;99.90;;;;;;5116137;27;20489;-40
2023/07/17 04:19:16;;;;;;;13.10;5.10;;;15.10;99.90;;;;;;5116418;27;20045;-40
2023/07/17 04:21:41;;;;;;;18.38;6.22;;;15.30;99.90;;;;;;5115596;27;20039;-39
2023/07/17 04:24:07;;;;;;;13.95;4.70;;;15.30;99.90;;;;;;5115889;27;20054;-40
2023/07/17 04:26:33;;;;;;;12.52;5.00;;;15.30;99.90;;;;;;5114961;27;20645;-39
2023/07/17 04:28:58;;;;;;;12.15;4.85;;;15.20;99.90;;;;;;5126316;27;20129;-40
2023/07/17 04:31:24;;;;;;;11.85;4.80;;;15.20;99.90;;;;;;5136408;27;20043;-39
2023/07/17 04:33:49;;;;;;;12.70;5.20;;;15.10;99.90;;;;;;5136980;27;20050;-40
2023/07/17 04:36:15;;;;;;;13.95;5.28;;;15.10;99.90;;;;;;5111471;27;20127;-39
2023/07/17 04:38:41;;;;;;;13.63;4.95;;;15.10;99.90;;;;;;5121649;27;20099;-39
2023/07/17 04:41:06;;;;;;;12.75;4.50;;;15.10;99.90;;;;;;5135387;27;20543;-40
2023/07/17 04:43:32;;;;;;;15.73;4.65;;;15.10;99.90;;;;;;5127002;27;20543;-39
2023/07/17 04:45:58;;;;;;;14.57;5.10;;;15.40;99.90;;;;;;5115219;27;20089;-40
2023/07/17 04:48:25;;;;;;;16.10;5.82;;;15.70;99.90;;;;;;5114821;27;20505;-40
2023/07/17 04:50:52;;;;;;;15.10;4.80;;;16.00;99.90;;;;;;5096067;27;20066;-40
2023/07/17 04:53:18;;;;;;;16.88;5.38;;;16.00;99.90;;;;;;5114711;27;20596;-40
2023/07/17 04:55:44;;;;;;;12.23;5.60;;;16.00;99.90;;;;;;5115126;27;20073;-39
2023/07/17 04:58:09;;;;;;;12.32;4.97;;;16.00;99.90;;;;;;5114631;27;20376;-40
2023/07/17 05:00:35;;;;;;;12.63;5.22;;;16.00;99.90;;;;;;5115487;27;20118;-39
2023/07/17 05:03:01;;;;;;;18.45;5.45;;;15.90;99.90;;;;;;5096147;28;20058;-40
2023/07/17 05:05:27;;;;;;;17.38;6.10;;;15.80;99.90;;;;;;5114578;27;20046;-39
2023/07/17 05:07:53;;;;;;;15.27;5.60;;;15.90;99.90;;;;;;5115798;27;20587;-39
2023/07/17 05:10:19;;;;;;;17.13;5.72;;;16.10;99.90;;;;;;5115363;27;20035;-40
2023/07/17 05:12:44;;;;;;;13.65;4.82;;;16.50;99.90;;;;;;5114215;27;20477;-40
2023/07/17 05:15:10;;;;;;;11.75;4.47;;;17.10;99.90;;;;;;5115570;27;20058;-40
2023/07/17 05:17:36;;;;;;;12.07;4.82;;;18.20;99.90;;;;;;5114858;27;20108;-40
2023/07/17 05:20:05;;;;;;;15.10;5.90;;;19.40;99.90;;;;;;5115527;27;20481;-40
2023/07/17 05:22:31;;;;;;;15.15;5.25;;;20.20;99.90;;;;;;5097474;27;20043;-40
2023/07/17 05:24:57;;;;;;;12.65;5.00;;;20.80;99.90;;;;;;5115704;27;20081;-41
2023/07/17 05:27:23;;;;;;;13.60;5.45;;;21.10;99.90;;;;;;5125226;27;20100;-41
2023/07/17 05:29:49;;;;;;;13.85;5.60;;;20.90;99.90;;;;;;5135725;27;20820;-41
2023/07/17 05:32:14;;;;;;;13.15;5.07;;;20.10;99.90;;;;;;5135306;27;20381;-41
2023/07/17 05:34:40;;;;;;;12.10;4.43;;;19.30;99.90;;;;;;5124555;27;20055;-40
2023/07/17 05:37:06;;;;;;;13.48;4.78;;;18.80;99.90;;;;;;5094742;28;20047;-41
2023/07/17 05:39:31;;;;;;;12.88;5.97;;;18.30;99.90;;;;;;5129148;27;20039;-40
2023/07/17 05:41:57;;;;;;;12.13;6.25;;;17.90;99.90;;;;;;5135726;27;20070;-40
2023/07/17 05:44:23;;;;;;;12.18;5.70;;;17.70;99.90;;;;;;5107261;27;20143;-41
2023/07/17 05:46:48;;;;;;;16.38;5.82;;;17.40;99.90;;;;;;5114079;27;20793;-40
2023/07/17 05:49:14;;;;;;;13.18;6.10;;;17.30;99.90;;;;;;5114959;27;20487;-40
2023/07/17 05:51:40;;;;;;;15.90;6.50;;;17.20;99.90;;;;;;5114432;27;20565;-40
2023/07/17 05:54:06;;;;;;;12.77;5.53;;;17.20;99.90;;;;;;5114593;27;20079;-40
2023/07/17 05:56:32;;;;;;;13.15;6.35;;;17.70;99.90;;;;;;5114516;27;20948;-40
2023/07/17 05:58:57;;;;;;;14.00;5.57;;;18.00;99.90;;;;;;5096828;28;20043;-40
2023/07/17 06:01:23;;;;;;;13.77;5.80;;;18.00;99.90;;;;;;5114665;27;20518;-40
2023/07/17 06:03:49;;;;;;;11.75;6.03;;;17.70;99.90;;;;;;5114456;27;20128;-40
2023/07/17 06:06:14;;;;;;;13.85;6.05;;;17.50;99.90;;;;;;5113963;27;20058;-40
2023/07/17 06:08:41;;;;;;;16.77;5.85;;;17.20;99.90;;;;;;5096052;27;20574;-40
2023/07/17 06:11:06;;;;;;;12.60;6.05;;;17.10;99.90;;;;;;5113318;27;20477;-40
2023/07/17 06:13:32;;;;;;;13.45;5.38;;;17.10;99.90;;;;;;5113922;27;20293;-40
2023/07/17 06:15:58;;;;;;;15.05;6.05;;;17.30;99.90;;;;;;5116734;27;20467;-40
2023/07/17 06:18:23;;;;;;;13.50;6.55;;;17.30;99.90;;;;;;5117853;27;20606;-40
2023/07/17 06:20:50;;;;;;;11.50;5.60;;;17.40;99.90;;;;;;5117239;27;20042;-40
2023/07/17 06:23:16;;;;;;;16.15;7.43;;;17.80;99.90;;;;;;5138135;27;20095;-41
2023/07/17 06:25:42;;;;;;;14.57;6.43;;;19.10;99.90;;;;;;5139188;27;20571;-41
2023/07/17 06:28:08;;;;;;;15.73;7.43;;;20.10;99.90;;;;;;5120514;27;20481;-41
2023/07/17 06:30:34;;;;;;;16.88;6.78;;;20.40;99.90;;;;;;5111517;27;20066;-41
2023/07/17 06:32:59;;;;;;;16.80;6.80;;;20.30;99.90;;;;;;5118216;27;20520;-41
2023/07/17 06:35:25;;;;;;;14.23;6.72;;;20.30;99.90;;;;;;5111178;27;20035;-41
2023/07/17 06:37:51;;;;;;;17.23;7.60;;;20.90;99.90;;;;;;5116491;27;20055;-42
2023/07/17 06:40:17;;;;;;;13.20;6.53;;;20.30;99.90;;;;;;5100447;27;20046;-41
2023/07/17 06:42:43;;;;;;;13.52;6.32;;;19.80;99.90;;;;;;5099822;27;20492;-41
2023/07/17 06:45:09;;;;;;;10.75;5.90;;;19.50;99.90;;;;;;5112510;27;20047;-41
2023/07/17 06:47:34;;;;;;;17.25;7.47;;;19.50;99.90;;;;;;5116239;27;20123;-41
2023/07/17 06:50:00;;;;;;;13.63;6.82;;;19.40;99.90;;;;;;5117148;27;20566;-40
2023/07/17 06:52:26;;;;;;;13.35;6.95;;;19.90;99.90;;;;;;5116818;27;20663;-40
2023/07/17 06:54:51;;;;;;;17.10;7.20;;;20.00;99.90;;;;;;5117385;27;20039;-40
2023/07/17 06:57:17;;;;;;;15.95;7.63;;;19.60;99.90;;;;;;5116248;27;20039;-41
2023/07/17 06:59:42;;;;;;;16.75;6.32;;;19.10;99.90;;;;;;5117248;27;20052;-40
2023/07/17 07:02:09;;;;;;;18.33;8.32;;;18.80;99.90;;;;;;5115997;27;20472;-41
2023/07/17 07:04:34;;;;;;;15.35;7.05;;;18.90;99.90;;;;;;5117325;27;20048;-40
2023/07/17 07:07:00;;;;;;;15.43;7.75;;;18.80;99.90;;;;;;5116552;27;20551;-40
2023/07/17 07:09:26;;;;;;;18.48;7.97;;;18.50;99.90;;;;;;5098371;27;20062;-40
2023/07/17 07:11:52;;;;;;;11.75;6.15;;;18.40;99.90;;;;;;5115905;27;20058;-40
2023/07/17 07:14:17;;;;;;;14.88;6.47;;;18.20;99.90;;;;;;5117015;27;20039;-41
2023/07/17 07:16:43;;;;;;;9.73;5.75;;;18.10;99.90;;;;;;5106060;27;20714;-40
2023/07/17 07:19:09;;;;;;;9.52;5.03;;;18.20;99.90;;;;;;5099160;27;20054;-40
2023/07/17 07:21:34;;;;;;;11.18;5.10;;;18.30;99.90;;;;;;5100270;27;20162;-40
2023/07/17 07:24:03;;;;;;;13.02;5.28;;;19.10;99.90;;;;;;5117546;27;20428;-42
2023/07/17 07:26:30;;;;;;;12.45;6.60;;;19.70;99.90;;;;;;5079287;27;20158;-40
2023/07/17 07:28:55;;;;;;;11.93;6.00;;;19.90;99.90;;;;;;5117186;27;20066;-40
2023/07/17 07:31:21;;;;;;;11.30;5.63;;;20.40;99.90;;;;;;5116633;27;20552;-42
2023/07/17 07:33:47;;;;;;;12.90;6.22;;;20.70;99.90;;;;;;5116589;27;20494;-40
2023/07/17 07:36:12;;;;;;;13.35;6.22;;;21.00;99.90;;;;;;5109383;27;20070;-41
2023/07/17 07:38:38;;;;;;;13.82;6.03;;;21.30;99.90;;;;;;5122687;27;20422;-40
2023/07/17 07:41:03;;;;;;;12.60;5.82;;;21.70;99.90;;;;;;5122988;27;20047;-41
2023/07/17 07:43:29;;;;;;;9.40;5.03;;;21.90;99.90;;;;;;5102288;27;20078;-41
2023/07/17 07:45:55;;;;;;;10.80;4.78;;;21.50;99.90;;;;;;5110462;27;20081;-41
2023/07/17 07:48:21;;;;;;;10.57;4.85;;;21.00;99.90;;;;;;5108393;27;20051;-41
2023/07/17 07:50:46;;;;;;;10.50;5.25;;;20.70;99.90;;;;;;5095514;27;20043;-41
2023/07/17 07:53:12;;;;;;;10.25;5.47;;;20.30;99.90;;;;;;5098920;27;20052;-41
2023/07/17 07:55:38;;;;;;;9.60;5.30;;;20.30;99.90;;;;;;5109874;27;20676;-41
2023/07/17 07:58:03;;;;;;;18.98;6.47;;;20.60;99.90;;;;;;5120466;27;20454;-40
2023/07/17 08:00:30;;;;;;;11.38;4.85;;;20.90;99.90;;;;;;5107853;27;20381;-41
2023/07/17 08:02:56;;;;;;;8.80;5.18;;;21.30;99.90;;;;;;5101886;27;20409;-41
2023/07/17 08:05:22;;;;;;;10.63;4.38;;;21.60;99.90;;;;;;5099195;27;20047;-41
2023/07/17 08:07:48;;;;;;;10.35;4.57;;;21.80;99.90;;;;;;5094917;27;20168;-41
2023/07/17 08:10:13;;;;;;;9.60;4.90;;;21.80;99.90;;;;;;5095971;27;20040;-41
2023/07/17 08:12:39;;;;;;;10.63;4.80;;;21.80;99.90;;;;;;5096962;27;20043;-42
2023/07/17 08:15:07;;;;;;;9.65;3.83;;;21.40;99.90;;;;;;5082396;27;20969;-41
2023/07/17 08:17:34;;;;;;;9.98;4.65;;;21.10;99.90;;;;;;5108803;27;20151;-41
2023/07/17 08:20:00;;;;;;;9.25;4.35;;;21.00;99.90;;;;;;5121452;27;20113;-41
2023/07/17 08:22:25;;;;;;;12.50;5.50;;;21.30;99.90;;;;;;5101015;27;20042;-41
2023/07/17 08:24:51;;;;;;;9.38;4.80;;;21.50;99.90;;;;;;5123187;27;20373;-41
2023/07/17 08:27:17;;;;;;;8.63;4.93;;;22.00;99.90;;;;;;5116355;27;20089;-41
2023/07/17 08:29:42;;;;;;;9.82;4.75;;;22.10;99.90;;;;;;5118815;27;20031;-41
2023/07/17 08:32:10;;;;;;;9.05;4.40;;;22.10;99.90;;;;;;5115018;27;20047;-41
2023/07/17 08:34:36;;;;;;;7.15;4.00;;;22.30;99.90;;;;;;5110564;27;20088;-42
2023/07/17 08:37:01;;;;;;;8.38;3.90;;;22.40;99.90;;;;;;5115427;27;20395;-42
2023/07/17 08:39:27;;;;;;;11.77;4.45;;;22.70;99.90;;;;;;5101804;27;20043;-42
2023/07/17 08:41:53;;;;;;;8.15;3.90;;;22.90;99.90;;;;;;5114452;27;20856;-42
2023/07/17 08:44:19;;;;;;;11.80;4.05;;;23.00;99.90;;;;;;5114716;27;20039;-41
2023/07/17 08:46:47;;;;;;;11.18;4.40;;;22.80;99.90;;;;;;5117015;27;20050;-42
2023/07/17 08:49:16;;;;;;;12.43;5.80;;;22.70;99.90;;;;;;5136019;27;20504;-41
2023/07/17 08:51:42;;;;;;;10.93;4.30;;;22.80;99.90;;;;;;5113508;27;20043;-41
2023/07/17 08:54:10;;;;;;;9.95;4.65;;;22.90;99.90;;;;;;5115897;27;20051;-41
2023/07/17 08:56:35;;;;;;;8.63;5.30;;;23.10;99.90;;;;;;5115419;27;20039;-41
2023/07/17 08:59:02;;;;;;;9.48;5.25;;;23.20;99.90;;;;;;5114209;27;20084;-41
2023/07/17 09:01:28;;;;;;;8.70;3.63;;;22.80;99.90;;;;;;5107256;27;20046;-41
2023/07/17 09:03:54;;;;;;;6.53;3.70;;;22.40;99.90;;;;;;5136613;27;20588;-41
2023/07/17 09:06:26;;;;;;;9.52;5.00;;;22.40;99.90;;;;;;5136706;27;20121;-41
2023/07/17 09:08:52;;;;;;;10.75;5.18;;;22.30;99.90;;;;;;5116455;27;20043;-41
2023/07/17 09:11:18;;;;;;;9.55;4.60;;;22.50;99.90;;;;;;5107973;27;20068;-42
2023/07/17 09:13:45;;;;;;;11.73;5.22;;;22.40;99.90;;;;;;5136640;27;20065;-41
2023/07/17 09:16:22;;;;;;;7.70;3.88;;;22.60;99.90;;;;;;5117260;27;20095;-42
2023/07/17 09:18:50;;;;;;;10.80;4.50;;;22.90;99.90;;;;;;5122226;27;20038;-40
2023/07/17 09:21:18;;;;;;;9.23;4.22;;;23.00;99.90;;;;;;5134887;27;20061;-41
2023/07/17 09:23:46;;;;;;;8.35;4.50;;;23.30;99.90;;;;;;5117375;27;20048;-42
2023/07/17 09:26:16;;;;;;;6.63;4.22;;;23.30;99.90;;;;;;5083108;28;20054;-41
2023/07/17 09:28:50;;;;;;;8.70;3.42;;;23.20;99.90;;;;;;5082744;27;20047;-43
2023/07/17 09:31:27;;;;;;;10.35;6.00;;;22.80;99.20;;;;;;5114372;28;20123;-40
2023/07/17 09:33:53;;;;;;;15.65;8.60;;;22.30;99.90;;;;;;5115324;27;20054;-41
2023/07/17 09:36:21;;;;;;;9.90;5.88;;;22.30;99.90;;;;;;5092580;28;20564;-41
2023/07/17 09:38:54;;;;;;;11.65;6.68;;;22.20;99.90;;;;;;5101009;27;20491;-42
2023/07/17 09:41:27;;;;;;;9.68;5.53;;;21.90;99.90;;;;;;5114628;27;20488;-41
2023/07/17 09:43:54;;;;;;;9.15;4.85;;;21.80;99.90;;;;;;5109978;27;20104;-40
2023/07/17 09:46:20;;;;;;;8.23;4.55;;;21.80;99.90;;;;;;5114816;28;20051;-40
2023/07/17 09:48:46;;;;;;;11.32;4.05;;;21.60;99.90;;;;;;5117063;27;20058;-41
2023/07/17 09:51:13;;;;;;;6.55;3.28;;;21.40;99.90;;;;;;5119142;27;20047;-41
2023/07/17 09:53:45;;;;;;;5.93;2.90;;;21.30;99.90;;;;;;5094324;27;20566;-40
2023/07/17 09:56:14;;;;;;;7.82;3.10;;;21.40;99.90;;;;;;5114768;27;20043;-41
2023/07/17 09:58:46;;;;;;;7.47;3.60;;;21.80;99.90;;;;;;5099744;27;20039;-42
2023/07/17 10:01:17;;;;;;;5.93;4.20;;;22.00;99.90;;;;;;5126266;27;20042;-41
2023/07/17 10:03:49;;;;;;;9.25;4.65;;;22.00;99.90;;;;;;5139721;27;20062;-41
2023/07/17 10:06:17;;;;;;;8.75;6.30;;;22.30;99.90;;;;;;5139173;27;20057;-40
2023/07/17 10:08:49;;;;;;;10.00;6.10;;;22.40;99.30;;;;;;5101549;27;20051;-41
2023/07/17 10:11:16;;;;;;;8.50;5.20;;;22.30;99.80;;;;;;5115352;27;20197;-40
2023/07/17 10:13:44;;;;;;;6.65;3.85;;;22.20;99.40;;;;;;5119240;27;20051;-40
2023/07/17 10:16:11;;;;;;;7.15;3.42;;;22.10;99.30;;;;;;5119114;27;20071;-40
2023/07/17 10:18:48;;;;;;;8.65;3.70;;;22.30;99.90;;;;;;5119034;27;20420;-42
2023/07/17 10:21:16;;;;;;;7.93;3.60;;;22.60;99.90;;;;;;5086246;27;20089;-41
2023/07/17 10:23:43;;;;;;;7.43;3.35;;;22.90;99.80;;;;;;5114462;27;20076;-40
2023/07/17 10:26:11;;;;;;;5.63;3.20;;;23.10;99.90;;;;;;5118600;27;20130;-41
2023/07/17 10:28:37;;;;;;;8.32;3.33;;;23.30;99.70;;;;;;5102395;27;20091;-41
2023/07/17 10:31:18;;;;;;;6.68;3.50;;;23.20;99.80;;;;;;5097641;27;20043;-41
2023/07/17 10:33:49;;;;;;;14.98;4.18;;;23.30;98.90;;;;;;5102036;27;20051;-41
2023/07/17 10:36:15;;;;;;;8.68;3.45;;;23.10;98.90;;;;;;5097962;27;20595;-41
2023/07/17 10:38:42;;;;;;;7.95;3.83;;;23.20;99.90;;;;;;5080272;28;20067;-42
2023/07/17 10:41:14;;;;;;;6.60;3.63;;;23.40;99.90;;;;;;5104271;27;20065;-42
2023/07/17 10:43:57;;;;;;;10.48;4.50;;;23.30;99.40;;;;;;5118766;27;20047;-41
2023/07/17 10:46:30;;;;;;;9.45;4.30;;;23.00;99.40;;;;;;5118380;27;20039;-44
2023/07/17 10:49:08;;;;;;;5.90;3.40;;;23.00;99.90;;;;;;5117413;27;20113;-42
2023/07/17 10:51:41;;;;;;;6.10;3.10;;;23.00;99.10;;;;;;5112368;27;20403;-42
2023/07/17 10:54:07;;;;;;;6.22;2.85;;;23.20;99.90;;;;;;5121110;27;20035;-41
2023/07/17 10:56:33;;;;;;;5.07;2.40;;;23.60;99.40;;;;;;5119592;27;20050;-42
2023/07/17 10:58:59;;;;;;;4.97;2.88;;;23.80;98.80;;;;;;5119933;27;20382;-42
2023/07/17 11:01:25;;;;;;;5.65;2.33;;;23.80;98.20;;;;;;5135815;27;20840;-42
2023/07/17 11:03:53;;;;;;;6.60;2.90;;;23.70;97.40;;;;;;5111290;27;20536;-41
2023/07/17 11:06:19;;;;;;;9.25;2.92;;;23.40;97.60;;;;;;5077666;28;20663;-43
2023/07/17 11:08:49;;;;;;;7.00;3.00;;;23.30;98.20;;;;;;5097012;27;20032;-42
2023/07/17 11:11:15;;;;;;;6.53;3.50;;;23.20;99.10;;;;;;5095479;27;20361;-42
2023/07/17 11:13:44;;;;;;;9.52;3.35;;;23.40;99.30;;;;;;5099367;27;20035;-41
2023/07/17 11:16:10;;;;;;;7.22;2.70;;;23.60;99.80;;;;;;5065193;27;20044;-41
2023/07/17 11:18:48;;;;;;;7.53;2.88;;;23.60;99.00;;;;;;5094085;27;20044;-41
2023/07/17 11:21:15;;;;;;;5.18;2.95;;;23.60;98.90;;;;;;5075271;28;20227;-41
2023/07/17 11:23:51;;;;;;;5.63;2.88;;;23.60;98.50;;;;;;5098688;27;20082;-42
2023/07/17 11:26:23;;;;;;;5.32;2.75;;;23.60;97.10;;;;;;5095326;27;20409;-41
2023/07/17 11:28:55;;;;;;;6.45;2.83;;;23.70;97.70;;;;;;5077467;28;20492;-40
2023/07/17 11:31:24;;;;;;;6.57;2.55;;;23.80;97.50;;;;;;5113969;27;20318;-41
2023/07/17 11:33:58;;;;;;;6.95;3.05;;;23.60;97.80;;;;;;5138333;27;20090;-41
2023/07/17 11:36:43;;;;;;;8.77;3.38;;;23.70;98.20;;;;;;5112982;27;20047;-41
2023/07/17 11:39:12;;;;;;;6.07;2.75;;;23.60;96.90;;;;;;5116579;27;20047;-42
2023/07/17 11:41:47;;;;;;;8.45;3.33;;;23.50;97.10;;;;;;5115857;27;20062;-41
2023/07/17 11:44:25;;;;;;;6.28;3.38;;;23.70;97.00;;;;;;5117501;27;20050;-41
2023/07/17 11:46:58;;;;;;;5.50;3.08;;;23.80;97.80;;;;;;5117397;27;20047;-41
2023/07/17 11:49:25;;;;;;;5.18;2.55;;;24.00;97.30;;;;;;5117739;27;20501;-40
2023/07/17 11:51:52;;;;;;;10.45;3.50;;;24.00;97.50;;;;;;5115650;27;20111;-42
2023/07/17 11:54:17;;;;;;;7.40;3.30;;;24.20;98.10;;;;;;5116553;27;20385;-44
2023/07/17 11:56:45;;;;;;;5.47;3.35;;;24.40;98.10;;;;;;5116255;27;20050;-41
2023/07/17 11:59:21;;;;;;;6.30;3.15;;;24.60;97.50;;;;;;5116073;27;20404;-41
2023/07/17 12:01:48;;;;;;;4.60;3.00;;;24.50;96.80;;;;;;5114307;27;20043;-41
2023/07/17 12:04:19;;;;;;;6.55;3.25;;;24.50;97.80;;;;;;5096354;27;20055;-41
2023/07/17 12:06:45;;;;;;;7.50;2.85;;;24.60;96.30;;;;;;5097082;27;20824;-43
2023/07/17 12:09:11;;;;;;;5.68;3.00;;;24.40;94.90;;;;;;5115526;27;20054;-42
2023/07/17 12:11:36;;;;;;;6.35;2.97;;;24.60;96.80;;;;;;5113632;27;20039;-41
2023/07/17 12:14:02;;;;;;;3.85;2.42;;;24.50;95.90;;;;;;5114666;27;20130;-41
2023/07/17 12:16:28;;;;;;;7.72;3.45;;;24.40;95.20;;;;;;5114409;27;20039;-42
2023/07/17 12:18:53;;;;;;;5.13;2.92;;;24.20;95.40;;;;;;5127861;27;20446;-41
2023/07/17 12:21:19;;;;;;;7.07;3.35;;;23.90;95.60;;;;;;5135171;27;20082;-41
2023/07/17 12:23:45;;;;;;;7.03;3.03;;;23.90;97.20;;;;;;5115162;27;20528;-41
2023/07/17 12:26:10;;;;;;;7.47;2.95;;;23.80;97.10;;;;;;5116245;27;20047;-42
2023/07/17 12:28:36;;;;;;;8.65;3.63;;;23.50;96.70;;;;;;5116101;27;20042;-42
2023/07/17 12:31:02;;;;;;;8.80;3.80;;;23.40;97.30;;;;;;5114324;27;20122;-41
2023/07/17 12:33:27;;;;;;;4.72;2.22;;;23.10;97.50;;;;;;5116066;27;20416;-44
2023/07/17 12:35:53;;;;;;;7.32;2.90;;;23.10;96.40;;;;;;5112149;27;20054;-41
2023/07/17 12:38:18;;;;;;;8.00;3.50;;;23.10;97.30;;;;;;5096619;27;20058;-42